Navios Indigo — V7NX2 — position and weather

sailwx.info

Track history (hours):
 
Tides and Currents Weather Stations Pressure Air Temp Water Temp Dewpoint Dewpoint Depression Visibility Wind Speed Wind Dir Waves Ship Positions

Navios Indigo

Last reported at 2018-Apr-23 22:01 UTC. Time now 2018-Apr-24 12:37 UTC.
Position N 36°20' E 015°16'.

Length 261 m; draft 12 m.

Type: Ship. MMSI: 538003035.

Date/timePositionNaut miles runAvg speedWind from/ knotsBaromVisibWave heightAir tempDewpointWater temp
2018-Apr-23 22:01N 36°20' E 015°16'118.8
2018-Apr-23 21:59N 36°20' E 015°15'918.9
2018-Apr-23 21:30N 36°21' E 015°04'918.9
2018-Apr-23 21:00N 36°22' E 014°52'1018.8
2018-Apr-23 20:30N 36°22' E 014°41'918.3
2018-Apr-23 20:00N 36°24' E 014°29'918.6
2018-Apr-23 19:30N 36°27' E 014°19'918.7
2018-Apr-23 19:01N 36°30' E 014°08'918.4
2018-Apr-23 18:30N 36°32' E 013°57'918.2
2018-Apr-23 18:00N 36°36' E 013°46'918.4
2018-Apr-23 17:30N 36°39' E 013°36'1018.2
2018-Apr-23 16:58N 36°42' E 013°24'818.2
2018-Apr-23 16:30N 36°44' E 013°13'917.6
2018-Apr-23 16:00N 36°48' E 013°04'917.9
2018-Apr-23 15:30N 36°51' E 012°53'918.0
2018-Apr-23 15:00N 36°54' E 012°43'918.2
2018-Apr-23 14:30N 36°56' E 012°32'918.3
2018-Apr-23 14:00N 36°60' E 012°21'918.2
2018-Apr-23 13:30N 37°03' E 012°10'10118.0
2018-Apr-23 07:52N 37°34' E 010°09'719.0
2018-Apr-23 07:29N 37°34' E 009°60'1019.4
2018-Apr-23 07:00N 37°34' E 009°48'919.2
2018-Apr-23 06:30N 37°35' E 009°36'918.4
2018-Apr-23 06:00N 37°36' E 009°24'918.4
2018-Apr-23 05:31N 37°37' E 009°13'1618.2
2018-Apr-23 04:38N 37°40' E 008°53'218.4
2018-Apr-23 04:30N 37°40' E 008°50'1018.5
2018-Apr-23 03:57N 37°39' E 008°37'22318.2
2018-Apr-22 15:41N 37°22' E 003°57'318.5
2018-Apr-22 15:30N 37°21' E 003°53'17318.2
2018-Apr-22 06:00N 36°47' E 000°21'27416.7
2018-Apr-21 13:35N 35°59' W 005°14'117.8
2018-Apr-21 13:31N 35°59' W 005°15'918.5
2018-Apr-21 13:00N 35°57' W 005°27'  
2018-Apr-15 07:03N 38°33' W 010°23'011.7
2018-Apr-15 07:00N 38°34' W 010°23'611.3
2018-Apr-15 06:29N 38°40' W 010°24'511.6
2018-Apr-15 06:00N 38°45' W 010°24'712.6
2018-Apr-15 05:29N 38°52' W 010°24'612.6
2018-Apr-15 05:00N 38°58' W 010°23'612.5
2018-Apr-15 04:30N 39°04' W 010°23'612.6
2018-Apr-15 04:00N 39°10' W 010°23'  
Track history (hours):
 
Tides and Currents Weather Stations Pressure Air Temp Water Temp Dewpoint Dewpoint Depression Visibility Wind Speed Wind Dir Waves Ship Positions

Navios Indigo

Last reported at 2018-Apr-23 22:01 UTC. Time now 2018-Apr-24 12:37 UTC.
Position N 36°20' E 015°16'.

Length 261 m; draft 12 m.

Type: Ship. MMSI: 538003035.

Date/timePositionNaut miles runAvg speedWind from/ knotsBaromVisibWave heightAir tempDewpointWater temp
2018-Apr-23 22:01N 36°20' E 015°16'118.8
2018-Apr-23 21:59N 36°20' E 015°15'918.9
2018-Apr-23 21:30N 36°21' E 015°04'918.9
2018-Apr-23 21:00N 36°22' E 014°52'1018.8
2018-Apr-23 20:30N 36°22' E 014°41'918.3
2018-Apr-23 20:00N 36°24' E 014°29'918.6
2018-Apr-23 19:30N 36°27' E 014°19'918.7
2018-Apr-23 19:01N 36°30' E 014°08'918.4
2018-Apr-23 18:30N 36°32' E 013°57'918.2
2018-Apr-23 18:00N 36°36' E 013°46'918.4
2018-Apr-23 17:30N 36°39' E 013°36'1018.2
2018-Apr-23 16:58N 36°42' E 013°24'818.2
2018-Apr-23 16:30N 36°44' E 013°13'917.6
2018-Apr-23 16:00N 36°48' E 013°04'917.9
2018-Apr-23 15:30N 36°51' E 012°53'918.0
2018-Apr-23 15:00N 36°54' E 012°43'918.2
2018-Apr-23 14:30N 36°56' E 012°32'918.3
2018-Apr-23 14:00N 36°60' E 012°21'918.2
2018-Apr-23 13:30N 37°03' E 012°10'10118.0
2018-Apr-23 07:52N 37°34' E 010°09'719.0
2018-Apr-23 07:29N 37°34' E 009°60'1019.4
2018-Apr-23 07:00N 37°34' E 009°48'919.2
2018-Apr-23 06:30N 37°35' E 009°36'918.4
2018-Apr-23 06:00N 37°36' E 009°24'918.4
2018-Apr-23 05:31N 37°37' E 009°13'1618.2
2018-Apr-23 04:38N 37°40' E 008°53'218.4
2018-Apr-23 04:30N 37°40' E 008°50'1018.5
2018-Apr-23 03:57N 37°39' E 008°37'22318.2
2018-Apr-22 15:41N 37°22' E 003°57'318.5
2018-Apr-22 15:30N 37°21' E 003°53'17318.2
2018-Apr-22 06:00N 36°47' E 000°21'27416.7
2018-Apr-21 13:35N 35°59' W 005°14'117.8
2018-Apr-21 13:31N 35°59' W 005°15'918.5
2018-Apr-21 13:00N 35°57' W 005°27'  
2018-Apr-15 07:03N 38°33' W 010°23'011.7
2018-Apr-15 07:00N 38°34' W 010°23'611.3
2018-Apr-15 06:29N 38°40' W 010°24'511.6
2018-Apr-15 06:00N 38°45' W 010°24'712.6
2018-Apr-15 05:29N 38°52' W 010°24'612.6
2018-Apr-15 05:00N 38°58' W 010°23'612.5
2018-Apr-15 04:30N 39°04' W 010°23'612.6
2018-Apr-15 04:00N 39°10' W 010°23'  

Dump ship's entire track history